createdAt,value
2019-03-21T00:00:45.692Z,27.46
2019-03-21T00:01:59.383Z,27.71
2019-03-21T00:03:01.658Z,28.18
2019-03-21T00:04:11.680Z,28.05
2019-03-21T00:05:14.406Z,28.03
2019-03-21T00:06:16.298Z,27.62
2019-03-21T00:07:18.413Z,28.25
2019-03-21T00:08:20.564Z,29.05
2019-03-21T00:09:22.679Z,28.19
2019-03-21T00:10:33.048Z,28.32
2019-03-21T00:12:00.206Z,28.83
2019-03-21T00:13:02.601Z,28.28
2019-03-21T00:14:13.378Z,28.74
2019-03-21T00:15:23.931Z,27.34
2019-03-21T00:16:25.993Z,27.91
2019-03-21T00:17:44.539Z,28.11
2019-03-21T00:18:47.273Z,29.49
2019-03-21T00:19:49.605Z,29.77
2019-03-21T00:20:51.947Z,28.47
2019-03-21T00:21:54.079Z,29.13
2019-03-21T00:22:56.160Z,28.25
2019-03-21T00:23:58.502Z,27.92
2019-03-21T00:25:00.438Z,28.84
2019-03-21T00:26:02.891Z,29.59
2019-03-21T00:27:05.126Z,29.00
2019-03-21T00:28:07.252Z,29.00
2019-03-21T00:29:09.311Z,30.23
2019-03-21T00:30:16.639Z,29.38
2019-03-21T00:31:18.814Z,30.85
2019-03-21T00:32:20.799Z,28.84
2019-03-21T00:33:22.818Z,29.05
2019-03-21T00:34:25.753Z,28.66
2019-03-21T00:35:28.782Z,27.98
2019-03-21T00:36:30.936Z,27.77
2019-03-21T00:37:33.204Z,28.25
2019-03-21T00:38:35.418Z,28.06
2019-03-21T00:39:38.376Z,27.73
2019-03-21T00:40:44.336Z,27.75
2019-03-21T00:41:47.439Z,29.25
2019-03-21T00:42:49.898Z,28.70
2019-03-21T00:43:52.501Z,28.11
2019-03-21T00:44:54.836Z,28.30
2019-03-21T00:45:57.040Z,29.15
2019-03-21T00:46:59.180Z,27.44
2019-03-21T00:48:03.899Z,27.97
2019-03-21T00:49:05.847Z,27.89
2019-03-21T00:50:13.813Z,28.12
2019-03-21T00:51:15.827Z,27.77
2019-03-21T00:52:17.729Z,27.97
2019-03-21T00:53:19.956Z,28.38
2019-03-21T00:54:21.649Z,27.63
2019-03-21T00:55:28.856Z,28.59
2019-03-21T00:56:30.985Z,28.84
2019-03-21T00:57:33.255Z,28.07
2019-03-21T00:58:35.351Z,28.02
2019-03-21T00:59:37.862Z,27.76
2019-03-21T01:00:47.865Z,29.77
2019-03-21T01:01:50.268Z,28.34
2019-03-21T01:02:54.382Z,27.52
2019-03-21T01:03:57.497Z,28.58
2019-03-21T01:04:59.535Z,27.45
2019-03-21T01:06:02.042Z,28.42
2019-03-21T01:07:05.034Z,28.43
2019-03-21T01:08:07.415Z,28.34
2019-03-21T01:09:13.590Z,28.06
2019-03-21T01:10:23.505Z,27.95
2019-03-21T01:11:25.584Z,28.24
2019-03-21T01:12:27.841Z,28.43
2019-03-21T01:13:34.528Z,28.42
2019-03-21T01:14:36.470Z,28.66
2019-03-21T01:15:38.344Z,28.68
2019-03-21T01:16:40.382Z,27.47
2019-03-21T01:17:42.541Z,28.69
2019-03-21T01:18:48.444Z,29.49
2019-03-21T01:19:50.731Z,28.72
2019-03-21T01:20:53.128Z,28.38
2019-03-21T01:21:55.255Z,29.94
2019-03-21T01:22:57.363Z,28.42
2019-03-21T01:23:59.343Z,28.75
2019-03-21T01:25:01.206Z,28.36
2019-03-21T01:26:10.429Z,28.57
2019-03-21T01:27:12.720Z,28.65
2019-03-21T01:28:14.380Z,28.56
2019-03-21T01:29:16.600Z,28.45
2019-03-21T01:30:19.956Z,29.37
2019-03-21T01:31:22.027Z,28.75
2019-03-21T01:32:24.091Z,29.04
2019-03-21T01:33:26.092Z,27.58
2019-03-21T01:34:28.036Z,28.25
2019-03-21T01:35:30.183Z,27.54
2019-03-21T01:36:32.267Z,27.46
2019-03-21T01:37:34.959Z,27.51
2019-03-21T01:38:37.065Z,28.04
2019-03-21T01:39:39.022Z,27.38
2019-03-21T01:40:52.101Z,27.36
2019-03-21T01:41:55.755Z,27.84
2019-03-21T01:42:57.982Z,27.44
2019-03-21T01:44:00.147Z,27.71
2019-03-21T01:45:12.925Z,27.47
2019-03-21T01:46:19.638Z,28.57
2019-03-21T01:47:21.980Z,28.15
2019-03-21T01:48:24.033Z,29.00
2019-03-21T01:49:25.942Z,27.90
2019-03-21T01:50:35.117Z,28.41
2019-03-21T01:51:36.979Z,27.67
2019-03-21T01:52:39.203Z,27.66
2019-03-21T01:53:41.183Z,27.71
2019-03-21T01:54:42.877Z,27.91
2019-03-21T01:55:45.372Z,27.76
2019-03-21T01:56:49.369Z,27.80
2019-03-21T01:57:51.342Z,27.91
2019-03-21T01:58:53.451Z,27.58
2019-03-21T01:59:55.833Z,27.57
2019-03-21T02:00:57.682Z,27.46
2019-03-21T02:02:00.073Z,27.65
2019-03-21T02:03:02.135Z,28.17
2019-03-21T02:04:03.933Z,27.69
2019-03-21T02:05:09.613Z,27.45
2019-03-21T02:06:11.915Z,27.72
2019-03-21T02:07:14.436Z,27.66
2019-03-21T02:08:16.412Z,27.52
2019-03-21T02:09:18.363Z,27.66
2019-03-21T02:10:20.694Z,27.62
2019-03-21T02:11:22.836Z,27.69
2019-03-21T02:12:24.686Z,27.71
2019-03-21T02:13:26.450Z,27.78
2019-03-21T02:14:28.852Z,27.58
2019-03-21T02:15:32.826Z,27.69
2019-03-21T02:16:35.478Z,28.12
2019-03-21T02:17:37.800Z,27.84
2019-03-21T02:18:40.008Z,27.66
2019-03-21T02:19:41.726Z,27.73
2019-03-21T02:20:43.977Z,27.72
2019-03-21T02:21:45.996Z,27.67
2019-03-21T02:22:48.244Z,28.06
2019-03-21T02:23:50.278Z,28.03
2019-03-21T02:24:52.030Z,27.74
2019-03-21T02:25:54.425Z,27.68
2019-03-21T02:26:56.555Z,28.04
2019-03-21T02:27:58.496Z,28.08
2019-03-21T02:29:00.745Z,29.27
2019-03-21T02:30:14.494Z,28.17
2019-03-21T02:31:16.834Z,27.92
2019-03-21T02:32:18.913Z,28.51
2019-03-21T02:33:38.439Z,28.41
2019-03-21T02:34:40.129Z,28.37
2019-03-21T02:35:42.535Z,28.32
2019-03-21T02:36:45.248Z,28.21
2019-03-21T02:37:47.463Z,28.39
2019-03-21T02:38:49.661Z,29.13
2019-03-21T02:39:59.574Z,27.93
2019-03-21T02:41:00.792Z,28.33
2019-03-21T02:42:03.014Z,28.02
2019-03-21T02:43:04.869Z,27.93
2019-03-21T02:44:07.009Z,27.98
2019-03-21T02:45:12.850Z,27.93
2019-03-21T02:46:14.827Z,28.79
2019-03-21T02:47:16.970Z,28.21
2019-03-21T02:48:19.341Z,27.90
2019-03-21T02:49:21.493Z,28.03
2019-03-21T02:50:28.349Z,27.96
2019-03-21T02:51:30.224Z,28.15
2019-03-21T02:52:32.216Z,28.07
2019-03-21T02:53:34.194Z,28.03
2019-03-21T02:54:36.239Z,29.39
2019-03-21T02:55:38.574Z,29.19
2019-03-21T02:56:40.625Z,28.55
2019-03-21T02:57:42.296Z,28.29
2019-03-21T02:58:44.289Z,28.60
2019-03-21T02:59:46.390Z,27.95
2019-03-21T03:00:48.217Z,28.25
2019-03-21T03:01:50.546Z,28.06
2019-03-21T03:02:55.418Z,28.18
2019-03-21T03:03:57.392Z,29.27
2019-03-21T03:04:59.384Z,28.60
2019-03-21T03:06:01.514Z,29.93
2019-03-21T03:07:05.056Z,29.00
2019-03-21T03:08:08.604Z,28.98
2019-03-21T03:09:10.825Z,28.55
2019-03-21T03:10:24.013Z,28.11
2019-03-21T03:11:26.108Z,27.88
2019-03-21T03:12:28.298Z,28.17
2019-03-21T03:13:29.976Z,28.41
2019-03-21T03:14:32.226Z,28.63
2019-03-21T03:15:36.213Z,28.40
2019-03-21T03:16:38.310Z,28.81
2019-03-21T03:17:40.500Z,27.85
2019-03-21T03:18:42.360Z,28.84
2019-03-21T03:19:44.115Z,28.39
2019-03-21T03:20:46.358Z,28.45
2019-03-21T03:21:48.708Z,27.91
2019-03-21T03:22:51.065Z,30.13
2019-03-21T03:23:53.115Z,29.35
2019-03-21T03:24:54.982Z,31.25
2019-03-21T03:25:57.689Z,31.06
2019-03-21T03:26:59.864Z,30.00
2019-03-21T03:28:13.231Z,30.13
2019-03-21T03:29:17.404Z,31.57
2019-03-21T03:30:23.218Z,29.69
2019-03-21T03:31:25.025Z,31.54
2019-03-21T03:32:26.981Z,29.29
2019-03-21T03:33:29.282Z,31.38
2019-03-21T03:34:32.708Z,31.74
2019-03-21T03:35:34.889Z,31.73
2019-03-21T03:36:37.050Z,29.77
2019-03-21T03:37:41.428Z,30.41
2019-03-21T03:38:44.409Z,30.06
2019-03-21T03:39:46.250Z,30.13
2019-03-21T03:40:56.673Z,29.55
2019-03-21T03:41:58.630Z,30.42
2019-03-21T03:43:00.274Z,29.01
2019-03-21T03:44:02.472Z,29.05
2019-03-21T03:45:19.234Z,30.03
2019-03-21T03:46:21.392Z,30.30
2019-03-21T03:47:23.835Z,29.36
2019-03-21T03:48:27.289Z,28.93
2019-03-21T03:49:29.514Z,29.70
2019-03-21T03:50:31.828Z,29.96
2019-03-21T03:51:33.816Z,29.79
2019-03-21T03:52:36.084Z,29.46
2019-03-21T03:53:38.196Z,29.36
2019-03-21T03:54:40.268Z,29.07
2019-03-21T03:55:42.585Z,29.77
2019-03-21T03:56:44.944Z,28.92
2019-03-21T03:58:04.684Z,30.51
2019-03-21T03:59:07.401Z,30.33
2019-03-21T04:00:15.190Z,28.79
2019-03-21T04:01:18.007Z,30.28
2019-03-21T04:02:21.430Z,31.04
2019-03-21T04:03:25.788Z,30.38
2019-03-21T04:04:28.796Z,29.14
2019-03-21T04:05:31.278Z,29.87
2019-03-21T04:06:33.501Z,29.97
2019-03-21T04:07:35.921Z,29.82
2019-03-21T04:08:38.475Z,29.36
2019-03-21T04:09:40.422Z,29.74
2019-03-21T04:10:54.942Z,29.48
2019-03-21T04:11:57.298Z,29.68
2019-03-21T04:12:59.135Z,29.52
2019-03-21T04:14:01.349Z,30.35
2019-03-21T04:15:09.059Z,28.94
2019-03-21T04:16:11.271Z,28.97
2019-03-21T04:17:15.377Z,29.77
2019-03-21T04:18:20.903Z,28.77
2019-03-21T04:19:23.035Z,29.66
2019-03-21T04:20:44.728Z,28.90
2019-03-21T04:21:46.711Z,29.05
2019-03-21T04:22:49.251Z,28.71
2019-03-21T04:23:51.669Z,29.21
2019-03-21T04:24:53.765Z,30.13
2019-03-21T04:26:13.655Z,29.81
2019-03-21T04:27:15.683Z,29.21
2019-03-21T04:28:20.575Z,29.06
2019-03-21T04:29:23.001Z,29.68
2019-03-21T04:30:25.146Z,30.64
2019-03-21T04:31:28.701Z,31.90
2019-03-21T04:32:30.673Z,31.11
2019-03-21T04:33:32.564Z,30.80
2019-03-21T04:34:35.621Z,32.75
2019-03-21T04:35:37.904Z,32.41
2019-03-21T04:36:40.118Z,30.65
2019-03-21T04:37:43.433Z,31.95
2019-03-21T04:38:45.445Z,30.88
2019-03-21T04:39:47.151Z,31.40
2019-03-21T04:40:49.131Z,32.03
2019-03-21T04:41:51.344Z,31.47
2019-03-21T04:42:53.745Z,31.23
2019-03-21T04:43:55.896Z,32.11
2019-03-21T04:44:58.244Z,30.46
2019-03-21T04:46:03.786Z,30.17
2019-03-21T04:47:04.485Z,30.18
2019-03-21T04:48:06.548Z,29.01
2019-03-21T04:49:08.226Z,30.18
2019-03-21T04:50:18.104Z,29.66
2019-03-21T04:51:20.190Z,29.98
2019-03-21T04:52:22.333Z,30.98
2019-03-21T04:53:24.669Z,29.32
2019-03-21T04:54:26.484Z,29.36
2019-03-21T04:55:28.658Z,30.27
2019-03-21T04:56:30.957Z,30.08
2019-03-21T04:57:34.378Z,30.83
2019-03-21T04:58:36.446Z,29.45
2019-03-21T04:59:38.489Z,29.37
2019-03-21T05:00:49.206Z,30.68
2019-03-21T05:01:51.184Z,29.66
2019-03-21T05:02:56.971Z,29.89
2019-03-21T05:03:59.298Z,29.37
2019-03-21T05:05:01.425Z,29.38
2019-03-21T05:06:03.729Z,29.59
2019-03-21T05:07:05.574Z,31.25
2019-03-21T05:08:07.708Z,30.54
2019-03-21T05:09:13.319Z,30.77
2019-03-21T05:10:16.104Z,30.95
2019-03-21T05:11:18.277Z,31.85
2019-03-21T05:12:19.991Z,30.30
2019-03-21T05:13:22.021Z,30.22
2019-03-21T05:14:25.119Z,30.80
2019-03-21T05:15:40.006Z,30.56
2019-03-21T05:16:43.015Z,30.96
2019-03-21T05:17:46.757Z,30.17
2019-03-21T05:18:57.159Z,28.74
2019-03-21T05:19:59.337Z,28.96
2019-03-21T05:21:05.803Z,31.23
2019-03-21T05:22:07.700Z,32.03
2019-03-21T05:23:09.954Z,29.54
2019-03-21T05:24:13.123Z,29.43
2019-03-21T05:25:15.219Z,29.96
2019-03-21T05:26:17.479Z,30.80
2019-03-21T05:27:19.504Z,29.95
2019-03-21T05:28:22.004Z,30.42
2019-03-21T05:29:24.371Z,29.28
2019-03-21T05:30:54.802Z,29.73
2019-03-21T05:31:57.043Z,29.48
2019-03-21T05:32:59.201Z,29.01
2019-03-21T05:34:02.387Z,29.42
2019-03-21T05:35:08.134Z,30.28
2019-03-21T05:36:10.012Z,31.78
2019-03-21T05:37:11.712Z,31.86
2019-03-21T05:38:14.386Z,31.66
2019-03-21T05:39:16.796Z,31.36
2019-03-21T05:40:19.966Z,30.93
2019-03-21T05:41:22.662Z,30.49
2019-03-21T05:42:25.111Z,29.22
2019-03-21T05:43:47.932Z,31.25
2019-03-21T05:44:50.223Z,31.07
2019-03-21T05:45:52.022Z,31.91
2019-03-21T05:46:54.082Z,31.12
2019-03-21T05:47:56.231Z,32.00
2019-03-21T05:48:58.149Z,31.45
2019-03-21T05:50:00.380Z,31.65
2019-03-21T05:51:02.805Z,31.23
2019-03-21T05:52:05.772Z,30.80
2019-03-21T05:53:07.983Z,31.09
2019-03-21T05:54:10.376Z,31.13
2019-03-21T05:55:12.747Z,31.25
2019-03-21T05:56:14.893Z,30.17
2019-03-21T05:57:17.254Z,30.86
2019-03-21T05:58:20.014Z,30.18
2019-03-21T05:59:23.245Z,31.62
2019-03-21T06:00:38.077Z,31.29
2019-03-21T06:01:40.225Z,31.00
2019-03-21T06:02:42.287Z,30.44
2019-03-21T06:03:51.695Z,30.36
2019-03-21T06:04:54.075Z,30.10
2019-03-21T06:06:01.957Z,29.47
2019-03-21T06:07:24.799Z,29.73
2019-03-21T06:08:31.546Z,30.61
2019-03-21T06:09:33.293Z,30.20
2019-03-21T06:10:35.198Z,30.65
2019-03-21T06:11:42.604Z,31.10
2019-03-21T06:12:45.485Z,31.27
2019-03-21T06:13:47.573Z,31.39
2019-03-21T06:14:57.978Z,30.67
2019-03-21T06:16:08.583Z,30.37
2019-03-21T06:17:10.572Z,31.24
2019-03-21T06:18:35.218Z,30.91
2019-03-21T06:19:45.597Z,31.79
2019-03-21T06:20:59.335Z,32.08
2019-03-21T06:22:12.623Z,31.62
2019-03-21T06:23:35.723Z,31.61
2019-03-21T06:24:58.344Z,31.58
2019-03-21T06:26:14.579Z,31.50
2019-03-21T06:27:29.600Z,31.08
2019-03-21T06:28:31.648Z,31.51
2019-03-21T06:29:33.639Z,31.25
2019-03-21T06:30:35.986Z,32.77
2019-03-21T06:31:37.998Z,31.71
2019-03-21T06:32:40.118Z,31.70
2019-03-21T06:33:42.386Z,29.38
2019-03-21T06:34:44.430Z,29.31
2019-03-21T06:35:46.503Z,29.24
2019-03-21T06:36:48.314Z,29.25
2019-03-21T06:37:50.560Z,29.25
2019-03-21T06:38:52.638Z,32.91
2019-03-21T06:39:54.410Z,31.53
2019-03-21T06:40:56.754Z,31.78
2019-03-21T06:41:58.856Z,32.38
2019-03-21T06:43:00.710Z,32.41
2019-03-21T06:44:03.506Z,32.49
2019-03-21T06:45:05.896Z,32.00
2019-03-21T06:46:08.215Z,32.53
2019-03-21T06:47:10.410Z,32.45
2019-03-21T06:48:12.694Z,32.77
2019-03-21T06:49:14.790Z,31.55
2019-03-21T06:50:17.257Z,32.05
2019-03-21T06:51:19.361Z,32.08
2019-03-21T06:52:21.200Z,32.26
2019-03-21T06:53:23.223Z,32.82
2019-03-21T06:54:25.397Z,31.77
2019-03-21T06:55:28.133Z,32.47
2019-03-21T06:56:30.449Z,32.78
2019-03-21T06:57:32.533Z,32.49
2019-03-21T06:58:34.740Z,32.32
2019-03-21T06:59:37.035Z,32.23
2019-03-21T07:00:39.186Z,32.65
2019-03-21T07:01:41.427Z,32.77
2019-03-21T07:02:43.675Z,32.61
2019-03-21T07:03:46.659Z,32.70
2019-03-21T07:04:48.845Z,32.87
2019-03-21T07:05:51.081Z,32.46
2019-03-21T07:06:53.197Z,33.02
2019-03-21T07:07:55.331Z,32.72
2019-03-21T07:08:57.620Z,33.11
2019-03-21T07:09:59.330Z,32.43
2019-03-21T07:11:01.481Z,32.51
2019-03-21T07:12:03.763Z,31.96
2019-03-21T07:13:05.556Z,33.02
2019-03-21T07:14:07.763Z,32.87
2019-03-21T07:15:10.669Z,33.46
2019-03-21T07:16:12.763Z,33.09
2019-03-21T07:17:14.725Z,32.88
2019-03-21T07:18:16.923Z,31.93
2019-03-21T07:19:19.344Z,32.49
2019-03-21T07:20:21.752Z,32.24
2019-03-21T07:21:23.982Z,31.74
2019-03-21T07:22:26.018Z,32.16
2019-03-21T07:23:28.069Z,32.28
2019-03-21T07:24:30.085Z,32.81
2019-03-21T07:25:33.642Z,33.03
2019-03-21T07:26:35.980Z,32.41
2019-03-21T07:27:37.730Z,32.30
2019-03-21T07:28:40.176Z,31.26
2019-03-21T07:29:42.565Z,31.16
2019-03-21T07:30:44.706Z,31.77
2019-03-21T07:31:46.684Z,31.63
2019-03-21T07:32:48.934Z,32.48
2019-03-21T07:33:50.688Z,33.98
2019-03-21T07:34:52.915Z,33.74
2019-03-21T07:35:54.976Z,32.48
2019-03-21T07:36:56.768Z,32.16
2019-03-21T07:37:59.148Z,33.16
2019-03-21T07:39:01.483Z,32.36
2019-03-21T07:40:11.795Z,32.93
2019-03-21T07:41:13.941Z,33.10
2019-03-21T07:42:16.034Z,32.99
2019-03-21T07:43:17.878Z,32.90
2019-03-21T07:44:20.058Z,32.78
2019-03-21T07:45:22.136Z,33.92
2019-03-21T07:46:24.702Z,32.49
2019-03-21T07:47:28.250Z,33.36
2019-03-21T07:48:30.288Z,32.58
2019-03-21T07:49:32.869Z,32.61
2019-03-21T07:50:35.129Z,32.80
2019-03-21T07:51:36.928Z,32.44
2019-03-21T07:52:39.238Z,31.61
2019-03-21T07:53:41.590Z,32.38
2019-03-21T07:54:43.413Z,32.60
2019-03-21T07:55:45.649Z,32.47
2019-03-21T07:56:47.791Z,33.10
2019-03-21T07:57:49.865Z,32.98
2019-03-21T07:58:52.979Z,32.82
2019-03-21T07:59:55.238Z,31.42
2019-03-21T08:00:57.383Z,32.67
2019-03-21T08:01:59.707Z,32.48
2019-03-21T08:03:01.891Z,32.34
2019-03-21T08:04:04.003Z,32.43
2019-03-21T08:05:08.218Z,31.91
2019-03-21T08:06:10.509Z,33.83
2019-03-21T08:07:12.485Z,33.45
2019-03-21T08:08:14.708Z,32.41
2019-03-21T08:09:16.787Z,33.31
2019-03-21T08:10:18.717Z,31.73
2019-03-21T08:11:20.981Z,32.42
2019-03-21T08:12:23.046Z,32.97
2019-03-21T08:13:24.900Z,33.68
2019-03-21T08:14:27.058Z,32.77
2019-03-21T08:15:29.170Z,32.97
2019-03-21T08:16:30.894Z,32.31
2019-03-21T08:17:33.298Z,33.34
2019-03-21T08:18:35.432Z,32.61
2019-03-21T08:19:37.402Z,30.60
2019-03-21T08:20:39.518Z,32.68
2019-03-21T08:21:42.607Z,32.46
2019-03-21T08:22:44.842Z,31.63
2019-03-21T08:23:47.022Z,30.86
2019-03-21T08:24:49.074Z,31.38
2019-03-21T08:25:51.485Z,31.29
2019-03-21T08:26:54.600Z,32.09
2019-03-21T08:27:56.673Z,31.80
2019-03-21T08:28:58.687Z,33.94
2019-03-21T08:30:00.770Z,30.73
2019-03-21T08:31:08.309Z,29.24
2019-03-21T08:32:10.424Z,31.32
2019-03-21T08:33:12.386Z,36.14
2019-03-21T08:34:14.376Z,30.04
2019-03-21T08:35:16.326Z,30.03
2019-03-21T08:36:18.462Z,32.68
2019-03-21T08:37:20.584Z,29.86
2019-03-21T08:38:23.741Z,29.68
2019-03-21T08:39:25.976Z,31.42
2019-03-21T08:40:28.285Z,29.59
2019-03-21T08:41:30.311Z,29.51
2019-03-21T08:42:33.319Z,29.37
2019-03-21T08:43:35.443Z,30.24
2019-03-21T08:44:37.562Z,29.82
2019-03-21T08:45:39.681Z,30.09
2019-03-21T08:46:42.031Z,31.11
2019-03-21T08:47:44.213Z,30.27
2019-03-21T08:48:46.035Z,30.93
2019-03-21T08:49:48.095Z,30.27
2019-03-21T08:50:50.561Z,30.69
2019-03-21T08:51:52.587Z,29.78
2019-03-21T08:52:54.597Z,29.78
2019-03-21T08:53:56.943Z,29.81
2019-03-21T08:54:58.722Z,33.44
2019-03-21T08:56:00.949Z,32.66
2019-03-21T08:57:03.358Z,32.14
2019-03-21T08:58:05.437Z,30.91
2019-03-21T08:59:07.458Z,30.22
2019-03-21T09:00:14.133Z,30.30
2019-03-21T09:01:15.822Z,31.59
2019-03-21T09:02:17.772Z,30.63
2019-03-21T09:03:19.776Z,30.54
2019-03-21T09:04:21.855Z,30.73
2019-03-21T09:05:24.145Z,30.77
2019-03-21T09:06:26.455Z,31.01
2019-03-21T09:07:28.818Z,33.40
2019-03-21T09:08:31.039Z,31.88
2019-03-21T09:09:33.308Z,30.67
2019-03-21T09:10:35.519Z,30.62
2019-03-21T09:11:37.994Z,30.85
2019-03-21T09:12:42.527Z,33.87
2019-03-21T09:13:43.982Z,30.82
2019-03-21T09:14:46.306Z,30.91
2019-03-21T09:15:48.654Z,30.90
2019-03-21T09:16:50.744Z,30.89
2019-03-21T09:17:55.418Z,31.18
2019-03-21T09:18:56.790Z,30.58
2019-03-21T09:19:58.813Z,30.52
2019-03-21T09:21:00.986Z,33.91
2019-03-21T09:22:03.189Z,31.54
2019-03-21T09:23:05.566Z,31.40
2019-03-21T09:24:07.690Z,31.45
2019-03-21T09:25:09.636Z,31.36
2019-03-21T09:26:11.996Z,31.03
2019-03-21T09:27:14.094Z,31.51
2019-03-21T09:28:15.860Z,31.31
2019-03-21T09:29:18.074Z,31.50
2019-03-21T09:30:20.204Z,31.12
2019-03-21T09:31:22.915Z,31.36
2019-03-21T09:32:25.210Z,31.73
2019-03-21T09:33:27.389Z,31.83
2019-03-21T09:34:29.345Z,31.60
2019-03-21T09:35:31.435Z,31.79
2019-03-21T09:36:33.364Z,33.18
2019-03-21T09:37:35.327Z,33.72
2019-03-21T09:38:37.784Z,33.53
2019-03-21T09:39:39.571Z,32.90
2019-03-21T09:40:41.566Z,34.60
2019-03-21T09:41:44.565Z,32.36
2019-03-21T09:42:47.012Z,35.13
2019-03-21T09:43:50.404Z,32.62
2019-03-21T09:44:52.495Z,32.52
2019-03-21T09:45:54.742Z,31.99
2019-03-21T09:46:57.026Z,31.76
2019-03-21T09:48:00.214Z,32.70
2019-03-21T09:49:02.108Z,33.05
2019-03-21T09:50:06.100Z,33.44
2019-03-21T09:51:08.027Z,32.86
2019-03-21T09:52:10.553Z,33.96
2019-03-21T09:53:12.869Z,33.23
2019-03-21T09:54:14.981Z,33.71
2019-03-21T09:55:17.032Z,33.62
2019-03-21T09:56:19.429Z,33.38
2019-03-21T09:57:21.352Z,33.41
2019-03-21T09:58:23.918Z,33.53
2019-03-21T09:59:25.888Z,33.37
2019-03-21T10:00:30.766Z,33.37
2019-03-21T10:01:32.662Z,33.45
2019-03-21T10:02:34.819Z,33.53
2019-03-21T10:03:36.958Z,33.79
2019-03-21T10:04:38.948Z,34.01
2019-03-21T10:05:41.074Z,33.84
2019-03-21T10:06:43.450Z,33.85
2019-03-21T10:07:45.534Z,33.83
2019-03-21T10:08:47.634Z,33.59
2019-03-21T10:09:49.270Z,33.76
2019-03-21T10:10:51.482Z,33.87
2019-03-21T10:11:53.741Z,34.83
2019-03-21T10:12:55.764Z,33.93
2019-03-21T10:13:58.830Z,33.97
2019-03-21T10:15:00.938Z,33.81
2019-03-21T10:16:03.165Z,36.32
2019-03-21T10:17:05.609Z,33.55
2019-03-21T10:18:07.405Z,37.19
2019-03-21T10:19:09.203Z,35.35
2019-03-21T10:20:11.274Z,33.92
2019-03-21T10:21:13.482Z,34.07
2019-03-21T10:22:15.618Z,33.90
2019-03-21T10:23:17.969Z,34.36
2019-03-21T10:24:19.985Z,33.86
2019-03-21T10:25:22.119Z,33.77
2019-03-21T10:27:37.759Z,34.44
2019-03-21T10:28:40.104Z,34.26
2019-03-21T10:29:42.378Z,34.65
2019-03-21T10:30:44.034Z,33.75
2019-03-21T10:31:46.631Z,34.48
2019-03-21T10:32:48.626Z,33.79
2019-03-21T10:33:50.491Z,33.87
2019-03-21T10:34:52.564Z,33.98
2019-03-21T10:35:56.801Z,35.35
2019-03-21T10:36:59.142Z,33.98
2019-03-21T10:38:01.547Z,33.77
2019-03-21T10:39:05.573Z,33.57
2019-03-21T10:40:07.769Z,33.66
2019-03-21T10:41:10.141Z,33.76
2019-03-21T10:42:12.434Z,34.41
2019-03-21T10:43:14.182Z,34.18
2019-03-21T10:44:16.147Z,34.17
2019-03-21T10:45:19.848Z,34.29
2019-03-21T10:46:21.933Z,34.28
2019-03-21T10:47:24.082Z,34.24
2019-03-21T10:48:26.958Z,35.05
2019-03-21T10:49:28.654Z,34.50
2019-03-21T10:50:34.264Z,34.58
2019-03-21T10:51:36.558Z,34.57
2019-03-21T10:52:38.547Z,34.50
2019-03-21T10:53:40.517Z,34.51
2019-03-21T10:54:45.824Z,34.64
2019-03-21T10:55:47.860Z,34.67
2019-03-21T10:56:50.066Z,34.80
2019-03-21T10:57:52.664Z,34.77
2019-03-21T10:58:55.934Z,34.72
2019-03-21T11:00:01.468Z,36.00
2019-03-21T11:01:02.961Z,35.81
2019-03-21T11:02:07.464Z,36.41
2019-03-21T11:03:09.626Z,37.08
2019-03-21T11:04:11.763Z,36.41
2019-03-21T11:05:14.170Z,35.20
2019-03-21T11:06:16.396Z,36.00
2019-03-21T11:07:17.795Z,34.83
2019-03-21T11:08:19.987Z,34.68
2019-03-21T11:09:21.686Z,34.54
2019-03-21T11:10:24.390Z,35.08
2019-03-21T11:11:26.418Z,35.23
2019-03-21T11:12:29.226Z,35.31
2019-03-21T11:13:31.969Z,35.14
2019-03-21T11:14:34.259Z,35.18
2019-03-21T11:15:36.493Z,35.31
2019-03-21T11:16:38.568Z,35.43
2019-03-21T11:17:41.247Z,35.36
2019-03-21T11:18:43.400Z,35.83
2019-03-21T11:19:46.424Z,36.01
2019-03-21T11:20:48.753Z,36.14
2019-03-21T11:21:51.149Z,36.09
2019-03-21T11:22:55.756Z,35.97
2019-03-21T11:23:58.073Z,35.87
2019-03-21T11:24:59.819Z,35.93
2019-03-21T11:26:02.135Z,35.78
2019-03-21T11:27:04.703Z,35.89
2019-03-21T11:28:08.335Z,36.08
2019-03-21T11:29:10.453Z,36.64
2019-03-21T11:30:18.196Z,36.83
2019-03-21T11:31:20.027Z,37.40
2019-03-21T11:32:22.186Z,36.63
2019-03-21T11:33:23.974Z,36.11
2019-03-21T11:34:27.174Z,35.61
2019-03-21T11:35:30.367Z,35.78
2019-03-21T11:36:38.042Z,38.82
2019-03-21T11:37:36.716Z,38.14
2019-03-21T11:38:38.664Z,36.66
2019-03-21T11:39:40.458Z,36.56
2019-03-21T11:40:44.019Z,36.27
2019-03-21T11:41:46.214Z,36.33
2019-03-21T11:42:48.282Z,37.30
2019-03-21T11:43:50.317Z,35.42
2019-03-21T11:44:52.548Z,36.65
2019-03-21T11:45:55.396Z,35.95
2019-03-21T11:46:58.044Z,36.10
2019-03-21T11:48:01.619Z,37.18
2019-03-21T11:49:03.488Z,34.99
2019-03-21T11:50:06.147Z,35.95
2019-03-21T11:51:08.623Z,34.90
2019-03-21T11:52:18.151Z,34.78
2019-03-21T11:53:14.668Z,35.82
2019-03-21T11:54:17.015Z,34.90
2019-03-21T11:55:19.326Z,35.00
2019-03-21T11:56:21.609Z,34.89
2019-03-21T11:57:23.712Z,34.92
2019-03-21T11:58:26.072Z,34.86
2019-03-21T11:59:38.437Z,34.74
2019-03-21T12:00:42.787Z,34.87
2019-03-21T12:01:36.271Z,34.85
2019-03-21T12:02:38.444Z,35.13
2019-03-21T12:03:40.467Z,34.93
2019-03-21T12:04:42.819Z,34.66
2019-03-21T12:05:44.921Z,34.83
2019-03-21T12:06:47.643Z,34.72
2019-03-21T12:07:49.659Z,34.83
2019-03-21T12:08:51.639Z,34.98
2019-03-21T12:09:54.013Z,34.93
2019-03-21T12:10:56.083Z,34.92
2019-03-21T12:11:58.333Z,34.73
2019-03-21T12:13:00.351Z,34.77
2019-03-21T12:14:04.185Z,34.98
2019-03-21T12:15:09.093Z,34.90
2019-03-21T12:16:11.055Z,35.13
2019-03-21T12:17:13.133Z,34.94
2019-03-21T12:18:15.331Z,34.98
2019-03-21T12:19:17.046Z,35.32
2019-03-21T12:20:27.542Z,35.25
2019-03-21T12:21:29.545Z,35.69
2019-03-21T12:22:31.475Z,35.14
2019-03-21T12:23:33.478Z,36.25
2019-03-21T12:24:35.287Z,36.52
2019-03-21T12:25:37.670Z,34.94
2019-03-21T12:26:39.655Z,34.75
2019-03-21T12:27:41.541Z,35.04
2019-03-21T12:28:43.589Z,34.53
2019-03-21T12:29:46.070Z,34.63
2019-03-21T12:30:48.398Z,34.40
2019-03-21T12:31:50.473Z,34.78
2019-03-21T12:32:52.584Z,34.44
2019-03-21T12:33:54.572Z,34.15
2019-03-21T12:34:56.729Z,34.08
2019-03-21T12:35:59.208Z,34.67
2019-03-21T12:37:01.348Z,34.27
2019-03-21T12:38:03.756Z,34.21
2019-03-21T12:39:07.538Z,34.64
2019-03-21T12:40:10.383Z,34.13
2019-03-21T12:41:12.690Z,34.32
2019-03-21T12:42:14.976Z,34.25
2019-03-21T12:43:17.164Z,34.05
2019-03-21T12:44:19.278Z,34.25
2019-03-21T12:45:21.755Z,34.24
2019-03-21T12:46:23.994Z,33.96
2019-03-21T12:47:31.142Z,33.92
2019-03-21T12:48:30.231Z,34.02
2019-03-21T12:49:32.383Z,34.28
2019-03-21T12:50:34.619Z,34.26
2019-03-21T12:51:37.095Z,34.38
2019-03-21T12:52:41.520Z,34.32
2019-03-21T12:53:43.269Z,35.37
2019-03-21T12:54:45.767Z,34.42
2019-03-21T12:55:47.867Z,34.63
2019-03-21T12:56:49.726Z,34.27
2019-03-21T12:57:53.859Z,34.14
2019-03-21T12:58:55.848Z,34.16
2019-03-21T12:59:58.093Z,35.50
2019-03-21T13:01:00.024Z,35.29
2019-03-21T13:02:02.014Z,34.77
2019-03-21T13:03:04.971Z,34.80
2019-03-21T13:04:08.202Z,35.34
2019-03-21T13:05:14.579Z,34.64
2019-03-21T13:06:16.603Z,33.94
2019-03-21T13:07:19.198Z,35.15
2019-03-21T13:08:33.110Z,35.04
2019-03-21T13:09:25.681Z,34.11
2019-03-21T13:10:27.912Z,34.36
2019-03-21T13:11:30.033Z,33.95
2019-03-21T13:12:32.850Z,35.95
2019-03-21T13:13:35.043Z,33.66
2019-03-21T13:14:37.470Z,35.76
2019-03-21T13:15:39.624Z,34.76
2019-03-21T13:16:41.660Z,35.45
2019-03-21T13:17:43.713Z,33.65
2019-03-21T13:18:45.631Z,35.36
2019-03-21T13:19:47.588Z,35.15
2019-03-21T13:20:49.824Z,35.80
2019-03-21T13:21:52.022Z,34.73
2019-03-21T13:22:54.215Z,34.66
2019-03-21T13:23:56.395Z,34.19
2019-03-21T13:24:58.165Z,33.72
2019-03-21T13:26:00.465Z,33.77
2019-03-21T13:27:02.755Z,34.66
2019-03-21T13:28:05.213Z,35.54
2019-03-21T13:29:07.274Z,35.95
2019-03-21T13:30:11.978Z,35.90
2019-03-21T13:31:13.982Z,34.42
2019-03-21T13:32:16.387Z,35.51
2019-03-21T13:33:18.434Z,34.41
2019-03-21T13:34:20.263Z,34.54
2019-03-21T13:35:31.939Z,33.17